map of MUZ home
MUZ - Airport
Location
City:  Musoma, Mara, Tanzania
Name:Musoma Airport
ICAO:HTMU
IATA:MUZ

Details
Type:Airport (Aerodrome, Airfield)
Latitude:130'09"S (-1.502499)
Longitude:3348'07"E (33.801944)
Elevation:3806 ft (1160 m)
Variation:1.07E (WMM2015 magnetic declination)
0.05 annual change
Runways:1
Longest:5249 ft (1600 m)

Time
Time Zone:UTC+3
Local Time:

Weather
METAR:HTMU 121700Z 00000KT 9999 FEW023CB 24/19 Q1015

Related Locations
Nearby:
Farthest:CXI: 11679 mi / 18795 km
Christmas Island (Kiritimati) [Cassidy Intl], L, KI

Find:

   beyond  
but within

Other Information
Maps:
NOTAMs:
Links:
Sources:

  
  • flag of Tanzania
  

Sectional Chart

Flight Planning
at skyvector.com

Satellite Image

Google Maps Satellite view

 

Copyright © 2004-2018 Karl L. Swartz. All rights reserved.
The Great Circle Mapper name and logo are trademarks of the Great Circle Mapper.
All other trademarks mentioned herein belong to their respective owners.
Please see credits for attibutions and further copyright information.

  Follow gcmap on Facebook Follow gcmap on Twitter Follow gcmap on Google+ GCmap on LinkedIn

hCard Microformat

Geo Microformat